Terminal Aerodrome Forecast
Issued by NWS

Home | Current Version | Previous Version | Text Only | Print | Product List | Glossary On
Versions: 1 2 3 4 5 6 7 8 9 10 11 12 13
625
FTUS42 KMLB 121121
TAFLEE
TAF
KLEE 121121Z 1212/1312 22006KT P6SM FEW250
     FM121500 25008KT P6SM FEW040 SCT250
     FM121700 28013G20KT P6SM SCT050 BKN250
     FM130000 29010KT P6SM SKC
     FM130300 32008KT P6SM SKC
     FM131000 35006KT P6SM SKC=

USA.gov is the U.S. government's official web portal to all federal, state and local government web resources and services.